Time;durP1;ratioP1;P1;durP2;ratioP2;P2;SDS_P1;SDS_P2;PMS_P1;PMS_P2;Temp;Humidity;BMP_temperature;BMP_pressure;BME280_temperature;BME280_humidity;BME280_pressure;Samples;Min_cycle;Max_cycle;Signal;HPM_P1;HPM_P2
2022/02/15 00:01:20;;;;;;;6.43;4.93;;;8.80;99.90;;;;;;5076289;28;20677;-65
2022/02/15 00:03:45;;;;;;;2.83;2.30;;;8.70;99.90;;;;;;5061760;28;20263;-66
2022/02/15 00:06:11;;;;;;;2.43;2.00;;;8.90;99.90;;;;;;5077563;28;20714;-66
2022/02/15 00:08:37;;;;;;;2.30;2.10;;;8.80;99.90;;;;;;5079924;28;20182;-65
2022/02/15 00:11:02;;;;;;;2.07;1.87;;;8.80;99.90;;;;;;5077255;28;20244;-66
2022/02/15 00:13:28;;;;;;;2.90;2.20;;;8.80;99.90;;;;;;5077398;28;20203;-65
2022/02/15 00:15:54;;;;;;;3.17;2.30;;;8.70;99.90;;;;;;5080509;28;20209;-66
2022/02/15 00:18:19;;;;;;;3.13;2.20;;;8.80;99.90;;;;;;5079983;28;20253;-67
2022/02/15 00:20:45;;;;;;;2.83;2.13;;;8.70;99.90;;;;;;5080493;28;20262;-66
2022/02/15 00:23:10;;;;;;;3.27;2.10;;;8.70;99.90;;;;;;5076503;28;20221;-65
2022/02/15 00:25:36;;;;;;;2.70;2.10;;;8.80;99.90;;;;;;5076544;28;20277;-66
2022/02/15 00:28:04;;;;;;;2.53;2.00;;;8.70;99.90;;;;;;5078057;28;20225;-65
2022/02/15 00:30:30;;;;;;;3.97;2.23;;;8.50;99.90;;;;;;5075203;28;20270;-65
2022/02/15 00:32:56;;;;;;;3.10;2.17;;;8.60;99.90;;;;;;5077684;28;20453;-65
2022/02/15 00:35:22;;;;;;;2.40;1.97;;;8.70;99.90;;;;;;5078225;28;20949;-65
2022/02/15 00:37:47;;;;;;;3.30;2.30;;;8.80;99.90;;;;;;5074386;28;20222;-66
2022/02/15 00:40:14;;;;;;;5.43;1.80;;;8.70;99.90;;;;;;5076788;28;20465;-65
2022/02/15 00:42:40;;;;;;;2.50;1.90;;;8.80;99.90;;;;;;5078629;28;20225;-65
2022/02/15 00:45:06;;;;;;;2.13;1.93;;;8.80;99.90;;;;;;5060300;28;20420;-65
2022/02/15 00:47:32;;;;;;;2.53;2.10;;;8.80;99.90;;;;;;5078087;28;20796;-66
2022/02/15 00:49:58;;;;;;;2.37;1.70;;;8.70;99.90;;;;;;5066017;28;20436;-66
2022/02/15 00:52:25;;;;;;;2.43;1.70;;;8.70;99.90;;;;;;5075159;28;20210;-66
2022/02/15 00:54:50;;;;;;;2.87;2.20;;;8.70;99.90;;;;;;5077216;28;20817;-66
2022/02/15 00:57:16;;;;;;;2.13;1.90;;;8.70;99.90;;;;;;5079064;28;20453;-66
2022/02/15 00:59:42;;;;;;;2.33;1.93;;;8.80;99.90;;;;;;5075642;28;20174;-66
2022/02/15 01:02:08;;;;;;;2.90;1.60;;;8.70;99.90;;;;;;5078020;28;20230;-65
2022/02/15 01:04:34;;;;;;;2.50;2.07;;;8.70;99.90;;;;;;5078830;28;20455;-66
2022/02/15 01:06:59;;;;;;;3.50;2.20;;;8.60;99.90;;;;;;5079270;28;20190;-66
2022/02/15 01:09:25;;;;;;;2.40;2.10;;;8.70;99.90;;;;;;5076796;28;20194;-66
2022/02/15 01:11:50;;;;;;;3.00;2.07;;;8.60;99.90;;;;;;5075804;28;20190;-66
2022/02/15 01:14:18;;;;;;;2.67;1.90;;;8.30;99.90;;;;;;5075326;28;20190;-66
2022/02/15 01:16:44;;;;;;;2.20;2.00;;;8.50;99.90;;;;;;5076926;28;20210;-65
2022/02/15 01:19:10;;;;;;;2.40;2.10;;;8.50;99.90;;;;;;5076142;28;20810;-66
2022/02/15 01:21:35;;;;;;;4.33;2.20;;;8.50;99.90;;;;;;5076329;28;20442;-65
2022/02/15 01:24:01;;;;;;;2.70;1.80;;;8.40;99.90;;;;;;5078587;28;20456;-65
2022/02/15 01:26:27;;;;;;;2.93;2.40;;;8.40;99.90;;;;;;5079449;28;20598;-65
2022/02/15 01:28:52;;;;;;;2.47;2.17;;;8.30;99.90;;;;;;5074315;28;20240;-65
2022/02/15 01:31:18;;;;;;;3.37;2.03;;;8.20;99.90;;;;;;5079178;28;20209;-65
2022/02/15 01:33:44;;;;;;;3.50;2.00;;;8.00;99.90;;;;;;5075349;28;20496;-65
2022/02/15 01:36:10;;;;;;;5.60;1.67;;;8.20;99.90;;;;;;5076083;28;20204;-65
2022/02/15 01:38:35;;;;;;;4.30;2.17;;;8.20;99.90;;;;;;5077706;28;20887;-65
2022/02/15 01:41:01;;;;;;;3.10;2.57;;;8.20;99.90;;;;;;5079487;28;20183;-65
2022/02/15 01:43:27;;;;;;;3.27;2.50;;;8.20;99.90;;;;;;5075158;28;20237;-65
2022/02/15 01:45:53;;;;;;;2.30;1.73;;;8.30;99.90;;;;;;5077241;28;20206;-65
2022/02/15 01:48:18;;;;;;;2.90;1.80;;;8.40;99.90;;;;;;5077292;28;20857;-65
2022/02/15 01:50:47;;;;;;;2.77;2.00;;;8.60;99.90;;;;;;5077266;28;20266;-65
2022/02/15 01:53:12;;;;;;;3.73;1.70;;;8.60;99.90;;;;;;5076423;28;20218;-65
2022/02/15 01:55:38;;;;;;;2.87;2.17;;;8.70;99.90;;;;;;5077365;28;20432;-66
2022/02/15 01:58:04;;;;;;;4.10;1.80;;;8.80;99.90;;;;;;5076392;28;20194;-66
2022/02/15 02:00:30;;;;;;;2.63;2.00;;;8.90;99.90;;;;;;5064901;28;20462;-65
2022/02/15 02:02:56;;;;;;;3.17;2.10;;;8.90;99.90;;;;;;5076604;28;21020;-65
2022/02/15 02:08:05;;;;;;;3.43;1.90;;;8.90;99.90;;;;;;5077107;28;20206;-65
2022/02/15 02:10:31;;;;;;;2.73;2.17;;;8.80;99.90;;;;;;5075909;28;20479;-65
2022/02/15 02:12:57;;;;;;;2.30;2.03;;;8.60;99.90;;;;;;5072970;28;20243;-65
2022/02/15 02:15:27;;;;;;;4.10;2.30;;;8.70;99.90;;;;;;5075812;28;20194;-66
2022/02/15 02:17:53;;;;;;;2.97;2.13;;;8.70;99.90;;;;;;5078568;28;20209;-66
2022/02/15 02:20:20;;;;;;;2.53;2.23;;;8.80;99.90;;;;;;5071698;28;20452;-66
2022/02/15 02:22:46;;;;;;;3.13;2.20;;;8.80;99.90;;;;;;5078367;28;21724;-65
2022/02/15 02:25:14;;;;;;;3.00;2.00;;;8.80;99.90;;;;;;5076165;28;20563;-65
2022/02/15 02:27:41;;;;;;;4.83;2.00;;;8.80;99.90;;;;;;5076558;28;20187;-65
2022/02/15 02:30:08;;;;;;;2.50;2.10;;;8.80;99.90;;;;;;5076307;28;20437;-66
2022/02/15 02:32:34;;;;;;;3.20;2.20;;;8.80;99.90;;;;;;5074969;28;20523;-65
2022/02/15 02:35:05;;;;;;;3.87;2.20;;;8.70;99.90;;;;;;5075659;28;20453;-66
2022/02/15 02:37:34;;;;;;;4.67;2.23;;;8.60;99.90;;;;;;5044916;28;20468;-66
2022/02/15 02:40:02;;;;;;;4.50;2.30;;;8.60;99.90;;;;;;5077769;28;20437;-66
2022/02/15 02:42:34;;;;;;;2.37;1.87;;;8.60;99.90;;;;;;5075151;28;20535;-65
2022/02/15 02:45:04;;;;;;;2.50;1.90;;;8.70;99.90;;;;;;5077688;28;20425;-65
2022/02/15 02:47:30;;;;;;;4.90;2.17;;;8.60;99.90;;;;;;5077042;28;20894;-65
2022/02/15 02:49:56;;;;;;;2.83;2.07;;;8.60;99.90;;;;;;5077924;28;20508;-65
2022/02/15 02:52:23;;;;;;;4.70;2.10;;;8.50;99.90;;;;;;5074835;28;20474;-65
2022/02/15 02:54:49;;;;;;;3.47;1.97;;;8.50;99.90;;;;;;5076256;28;20440;-66
2022/02/15 02:57:15;;;;;;;2.67;1.90;;;8.50;99.90;;;;;;5064676;28;20456;-65
2022/02/15 02:59:42;;;;;;;2.53;2.00;;;8.40;99.90;;;;;;5076174;28;20437;-65
2022/02/15 03:02:09;;;;;;;2.30;2.10;;;8.40;99.90;;;;;;5073288;28;20202;-65
2022/02/15 03:04:36;;;;;;;4.90;1.83;;;8.60;99.90;;;;;;5077012;28;20515;-65
2022/02/15 03:07:03;;;;;;;3.97;2.60;;;8.60;99.90;;;;;;5078003;28;20511;-65
2022/02/15 03:09:28;;;;;;;3.73;2.17;;;8.50;99.90;;;;;;5074866;28;20526;-65
2022/02/15 03:11:54;;;;;;;3.20;2.00;;;8.50;99.90;;;;;;5059981;28;20497;-65
2022/02/15 03:14:20;;;;;;;4.30;2.13;;;8.50;99.90;;;;;;5078572;28;20370;-66
2022/02/15 03:16:45;;;;;;;4.93;2.27;;;8.30;99.90;;;;;;5074599;28;20269;-65
2022/02/15 03:19:11;;;;;;;3.63;2.20;;;8.40;99.90;;;;;;5078009;28;20208;-65
2022/02/15 03:21:37;;;;;;;4.40;2.33;;;8.50;99.90;;;;;;5075812;28;20176;-65
2022/02/15 03:24:03;;;;;;;3.93;1.80;;;8.40;99.90;;;;;;5074961;28;20331;-66
2022/02/15 03:26:28;;;;;;;3.67;2.30;;;8.50;99.90;;;;;;5078061;28;20672;-65
2022/02/15 03:28:54;;;;;;;4.43;2.40;;;8.50;99.90;;;;;;5080029;28;20464;-65
2022/02/15 03:31:20;;;;;;;2.00;1.80;;;8.50;99.90;;;;;;5076495;28;20209;-66
2022/02/15 03:33:46;;;;;;;5.27;2.47;;;8.50;99.90;;;;;;5081672;28;20202;-66
2022/02/15 03:36:12;;;;;;;5.30;2.20;;;8.30;99.90;;;;;;5079290;28;20435;-64
2022/02/15 03:38:38;;;;;;;4.07;2.37;;;8.40;99.90;;;;;;5077714;28;20282;-64
2022/02/15 03:43:49;;;;;;;2.37;2.00;;;8.50;99.90;;;;;;5077235;28;20229;-65
2022/02/15 03:46:14;;;;;;;5.60;2.10;;;8.40;99.90;;;;;;5078456;28;20422;-65
2022/02/15 03:48:40;;;;;;;5.13;2.57;;;8.30;99.90;;;;;;5082822;28;20627;-65
2022/02/15 03:51:06;;;;;;;3.30;2.10;;;8.30;99.90;;;;;;5080997;28;20182;-65
2022/02/15 03:53:31;;;;;;;2.63;2.17;;;8.40;99.90;;;;;;5078342;28;20223;-65
2022/02/15 03:55:57;;;;;;;3.53;2.37;;;8.50;99.90;;;;;;5078566;28;20445;-65
2022/02/15 03:58:22;;;;;;;3.90;2.23;;;8.30;99.90;;;;;;5078948;28;20310;-65
2022/02/15 04:00:48;;;;;;;3.23;2.20;;;8.30;99.90;;;;;;5082299;28;20183;-65
2022/02/15 04:03:13;;;;;;;4.80;2.37;;;8.40;99.90;;;;;;5062943;28;20252;-65
2022/02/15 04:05:39;;;;;;;4.30;2.10;;;8.40;99.90;;;;;;5079381;28;20180;-65
2022/02/15 04:08:05;;;;;;;4.50;2.47;;;8.60;99.90;;;;;;5078839;28;20179;-65
2022/02/15 04:10:30;;;;;;;3.07;2.37;;;8.50;99.90;;;;;;5078758;28;20182;-65
2022/02/15 04:12:56;;;;;;;5.23;2.23;;;8.60;99.90;;;;;;5079366;28;20549;-65
2022/02/15 04:15:22;;;;;;;3.20;2.27;;;8.60;99.90;;;;;;5080075;28;20224;-65
2022/02/15 04:17:48;;;;;;;2.77;2.10;;;8.50;99.90;;;;;;5077430;28;20335;-64
2022/02/15 04:20:15;;;;;;;6.50;2.77;;;8.50;99.90;;;;;;5080225;28;20174;-65
2022/02/15 04:22:43;;;;;;;2.40;2.13;;;8.50;99.90;;;;;;5079100;28;20483;-65
2022/02/15 04:25:10;;;;;;;3.30;2.50;;;8.50;99.90;;;;;;5079907;28;20596;-65
2022/02/15 04:27:35;;;;;;;3.30;2.60;;;8.50;99.90;;;;;;5075426;28;20463;-65
2022/02/15 04:30:02;;;;;;;4.10;2.37;;;8.50;99.90;;;;;;5080384;28;20435;-65
2022/02/15 04:32:28;;;;;;;2.77;2.13;;;8.30;99.90;;;;;;5077564;28;20252;-65
2022/02/15 04:34:53;;;;;;;11.23;2.40;;;8.30;99.90;;;;;;5075319;28;20452;-65
2022/02/15 04:37:19;;;;;;;5.50;2.30;;;8.20;99.90;;;;;;5081566;28;20200;-65
2022/02/15 04:39:46;;;;;;;4.40;1.90;;;8.20;99.90;;;;;;5079741;28;20186;-65
2022/02/15 04:42:13;;;;;;;3.60;2.03;;;8.20;99.90;;;;;;5067380;28;20667;-65
2022/02/15 04:44:39;;;;;;;3.63;2.37;;;8.30;99.90;;;;;;5076302;28;20420;-65
2022/02/15 04:47:05;;;;;;;2.90;2.10;;;8.20;99.90;;;;;;5076294;28;20508;-65
2022/02/15 04:49:32;;;;;;;3.13;2.10;;;8.30;99.90;;;;;;5077030;28;20541;-65
2022/02/15 04:51:58;;;;;;;5.67;2.70;;;8.30;99.90;;;;;;5077566;28;20366;-65
2022/02/15 04:54:24;;;;;;;2.43;2.03;;;8.30;99.90;;;;;;5080748;28;20456;-65
2022/02/15 04:56:51;;;;;;;4.00;2.50;;;8.30;99.90;;;;;;5080418;28;21196;-65
2022/02/15 04:59:16;;;;;;;4.73;2.43;;;8.30;99.90;;;;;;5077051;28;20721;-66
2022/02/15 05:01:42;;;;;;;3.53;2.40;;;8.30;99.90;;;;;;5077979;28;20433;-65
2022/02/15 05:04:48;;;;;;;3.37;2.20;;;8.30;99.90;;;;;;5075512;28;20194;-65
2022/02/15 05:06:54;;;;;;;3.27;2.70;;;8.30;99.90;;;;;;5064677;28;20186;-65
2022/02/15 05:09:19;;;;;;;2.47;2.23;;;8.30;99.90;;;;;;5073254;28;20478;-65
2022/02/15 05:11:45;;;;;;;2.90;2.27;;;8.30;99.90;;;;;;5077545;28;20178;-66
2022/02/15 05:14:10;;;;;;;4.63;2.53;;;8.30;99.90;;;;;;5068749;28;20201;-65
2022/02/15 05:16:36;;;;;;;2.50;2.20;;;8.20;99.90;;;;;;5072670;28;20273;-65
2022/02/15 05:19:02;;;;;;;3.37;2.63;;;8.20;99.90;;;;;;5075968;28;20215;-65
2022/02/15 05:21:28;;;;;;;3.70;2.50;;;8.10;99.90;;;;;;5080804;28;20899;-65
2022/02/15 05:23:54;;;;;;;4.10;2.80;;;8.00;99.90;;;;;;5077658;28;20437;-64
2022/02/15 05:26:19;;;;;;;2.80;2.37;;;7.90;99.90;;;;;;5076850;28;20659;-65
2022/02/15 05:28:45;;;;;;;3.33;2.80;;;7.70;99.90;;;;;;5073378;28;20290;-65
2022/02/15 05:31:10;;;;;;;6.30;2.90;;;7.70;99.90;;;;;;5074613;28;20187;-64
2022/02/15 05:33:36;;;;;;;3.63;3.00;;;7.60;99.90;;;;;;5076816;28;20213;-64
2022/02/15 05:36:02;;;;;;;5.00;3.30;;;7.50;99.90;;;;;;5073707;28;20274;-65
2022/02/15 05:38:28;;;;;;;5.40;3.27;;;7.50;99.90;;;;;;5075131;28;20203;-64
2022/02/15 05:40:53;;;;;;;6.73;3.43;;;7.50;99.90;;;;;;5076974;28;20433;-65
2022/02/15 05:43:19;;;;;;;6.13;3.80;;;7.50;99.90;;;;;;5074285;28;20289;-65
2022/02/15 05:45:44;;;;;;;4.80;3.37;;;7.50;99.90;;;;;;5074727;28;20581;-66
2022/02/15 05:48:10;;;;;;;3.80;3.40;;;7.60;99.90;;;;;;5071570;28;20199;-65
2022/02/15 05:50:52;;;;;;;4.30;3.50;;;7.70;99.90;;;;;;5074546;28;20238;-65
2022/02/15 05:53:19;;;;;;;4.40;3.67;;;7.60;99.90;;;;;;5071914;28;20207;-66
2022/02/15 05:55:45;;;;;;;6.53;3.83;;;7.70;99.90;;;;;;5075024;28;20435;-66
2022/02/15 05:58:11;;;;;;;5.50;3.47;;;7.80;99.90;;;;;;5073654;28;20479;-66
2022/02/15 06:00:36;;;;;;;10.23;3.70;;;7.80;99.90;;;;;;5077253;28;20822;-66
2022/02/15 06:04:09;;;;;;;5.40;3.90;;;7.80;99.90;;;;;;5077637;28;20209;-66
2022/02/15 06:05:48;;;;;;;5.67;4.03;;;7.80;99.90;;;;;;5074837;28;20340;-65
2022/02/15 06:08:13;;;;;;;6.53;4.10;;;7.70;99.90;;;;;;5059043;28;21016;-65
2022/02/15 06:10:39;;;;;;;4.10;3.70;;;7.70;99.90;;;;;;5077197;28;20183;-65
2022/02/15 06:13:04;;;;;;;5.77;3.67;;;7.70;99.90;;;;;;5072358;28;20209;-65
2022/02/15 06:15:30;;;;;;;4.70;3.87;;;7.70;99.90;;;;;;5062910;28;20557;-65
2022/02/15 06:17:56;;;;;;;7.07;4.20;;;7.70;99.90;;;;;;5075371;28;20593;-67
2022/02/15 06:20:21;;;;;;;4.63;3.87;;;7.80;99.90;;;;;;5074941;28;20197;-65
2022/02/15 06:22:47;;;;;;;4.03;3.60;;;7.70;99.90;;;;;;5074377;28;20217;-66
2022/02/15 06:25:12;;;;;;;4.73;3.60;;;7.70;99.90;;;;;;5072132;28;20193;-66
2022/02/15 06:27:38;;;;;;;5.53;3.80;;;7.70;99.90;;;;;;5077906;28;20183;-65
2022/02/15 06:30:04;;;;;;;4.80;3.80;;;7.60;99.90;;;;;;5071278;28;20670;-65
2022/02/15 06:32:30;;;;;;;7.80;3.70;;;7.60;99.90;;;;;;5073315;28;20683;-65
2022/02/15 06:34:55;;;;;;;9.80;4.33;;;7.60;99.90;;;;;;5075896;28;20479;-65
2022/02/15 06:37:21;;;;;;;6.30;4.60;;;7.60;99.90;;;;;;5075247;28;20670;-65
2022/02/15 06:39:47;;;;;;;6.03;4.47;;;7.70;99.90;;;;;;5058240;28;20190;-65
2022/02/15 06:42:13;;;;;;;9.90;5.70;;;7.70;99.90;;;;;;5074852;28;20460;-65
2022/02/15 06:44:38;;;;;;;7.67;4.50;;;7.80;99.90;;;;;;5077791;28;20217;-66
2022/02/15 06:47:05;;;;;;;6.00;4.23;;;7.80;99.90;;;;;;5079134;28;20789;-65
2022/02/15 06:49:30;;;;;;;5.87;5.27;;;7.80;99.90;;;;;;5073351;28;20194;-65
2022/02/15 06:51:56;;;;;;;6.40;4.60;;;7.70;99.90;;;;;;5076927;28;20443;-66
2022/02/15 06:54:22;;;;;;;4.90;4.40;;;7.70;99.90;;;;;;5077456;28;20266;-65
2022/02/15 06:56:47;;;;;;;6.37;4.10;;;7.70;99.90;;;;;;5074663;28;20259;-66
2022/02/15 06:59:13;;;;;;;8.43;4.30;;;7.70;99.90;;;;;;5076123;28;20327;-65
2022/02/15 07:01:41;;;;;;;5.17;3.97;;;7.70;99.90;;;;;;5079871;28;20572;-65
2022/02/15 07:04:07;;;;;;;7.03;4.50;;;7.70;99.90;;;;;;5079597;28;20453;-66
2022/02/15 07:06:32;;;;;;;10.43;4.13;;;7.60;99.90;;;;;;5078113;28;20436;-65
2022/02/15 07:08:58;;;;;;;6.03;4.00;;;7.60;99.90;;;;;;5062033;28;20437;-65
2022/02/15 07:11:24;;;;;;;4.67;3.80;;;7.70;99.90;;;;;;5078712;28;20194;-65
2022/02/15 07:13:50;;;;;;;6.37;3.97;;;7.70;99.90;;;;;;5077344;28;20207;-66
2022/02/15 07:16:17;;;;;;;5.60;4.50;;;7.80;99.90;;;;;;5079194;28;20190;-66
2022/02/15 07:18:43;;;;;;;7.67;4.80;;;7.80;99.90;;;;;;5077065;28;20514;-66
2022/02/15 07:21:09;;;;;;;6.27;4.10;;;7.80;99.90;;;;;;5068948;28;20439;-66
2022/02/15 07:23:34;;;;;;;6.30;4.43;;;7.80;99.90;;;;;;5061985;28;20694;-65
2022/02/15 07:26:00;;;;;;;5.90;4.33;;;7.70;99.90;;;;;;5077953;28;21003;-65
2022/02/15 07:28:28;;;;;;;6.23;4.17;;;7.70;99.90;;;;;;5074517;28;21535;-65
2022/02/15 07:30:54;;;;;;;5.20;4.27;;;7.80;99.90;;;;;;5075760;28;20180;-65
2022/02/15 07:33:19;;;;;;;6.47;4.23;;;7.80;99.90;;;;;;5075714;28;20911;-65
2022/02/15 07:35:46;;;;;;;6.00;4.50;;;7.90;99.90;;;;;;5079536;28;20433;-66
2022/02/15 07:38:11;;;;;;;5.80;4.27;;;7.80;99.90;;;;;;5076296;28;20603;-65
2022/02/15 07:40:37;;;;;;;6.47;4.40;;;7.80;99.90;;;;;;5077302;28;20492;-65
2022/02/15 07:43:03;;;;;;;7.83;4.60;;;7.80;99.90;;;;;;5062079;28;20238;-65
2022/02/15 07:45:28;;;;;;;5.77;4.33;;;7.80;99.90;;;;;;5078163;28;20183;-65
2022/02/15 07:47:54;;;;;;;4.73;3.70;;;7.90;99.90;;;;;;5078192;28;20231;-65
2022/02/15 07:50:22;;;;;;;9.93;4.50;;;7.80;99.90;;;;;;5075038;28;20199;-65
2022/02/15 07:52:50;;;;;;;6.73;4.40;;;7.80;99.90;;;;;;5079480;28;20202;-65
2022/02/15 07:55:17;;;;;;;6.27;4.90;;;7.80;99.90;;;;;;5076025;28;20445;-65
2022/02/15 07:57:43;;;;;;;5.50;4.87;;;7.80;99.90;;;;;;5078470;28;20579;-65
2022/02/15 08:00:10;;;;;;;6.00;4.47;;;7.70;99.90;;;;;;5073934;28;21353;-65
2022/02/15 08:02:35;;;;;;;5.70;4.70;;;7.90;99.90;;;;;;5075088;28;20456;-67
2022/02/15 08:05:01;;;;;;;5.50;4.23;;;7.80;99.90;;;;;;5076069;28;20450;-67
2022/02/15 08:07:32;;;;;;;6.37;4.47;;;7.80;99.90;;;;;;5065125;28;20190;-65
2022/02/15 08:09:59;;;;;;;7.57;5.70;;;7.90;99.90;;;;;;5078823;28;20910;-67
2022/02/15 08:12:25;;;;;;;7.60;4.30;;;7.80;99.90;;;;;;5078050;28;20502;-67
2022/02/15 08:14:51;;;;;;;8.43;5.37;;;8.00;99.90;;;;;;5075206;28;20526;-67
2022/02/15 08:17:16;;;;;;;11.33;5.87;;;8.00;99.90;;;;;;5076104;28;20570;-67
2022/02/15 08:19:42;;;;;;;7.20;5.13;;;8.00;99.90;;;;;;5077469;28;20590;-68
2022/02/15 08:22:08;;;;;;;5.57;4.90;;;8.00;99.90;;;;;;5057401;28;20218;-67
2022/02/15 08:24:34;;;;;;;7.30;4.70;;;8.00;99.90;;;;;;5077277;28;20180;-67
2022/02/15 08:27:01;;;;;;;6.83;5.20;;;8.00;99.90;;;;;;5065451;28;20586;-67
2022/02/15 08:29:28;;;;;;;8.67;5.47;;;8.10;99.90;;;;;;5078060;28;20432;-67
2022/02/15 08:31:54;;;;;;;7.90;5.37;;;8.20;99.90;;;;;;5075223;28;20493;-68
2022/02/15 08:34:20;;;;;;;6.57;5.20;;;8.20;99.90;;;;;;5075569;28;20990;-67
2022/02/15 08:36:46;;;;;;;9.27;5.40;;;8.20;99.90;;;;;;5074939;28;20434;-67
2022/02/15 08:39:12;;;;;;;4.70;4.20;;;8.30;99.90;;;;;;5077127;28;20710;-67
2022/02/15 08:41:39;;;;;;;5.67;5.07;;;8.30;99.90;;;;;;5076581;28;20182;-67
2022/02/15 08:44:04;;;;;;;6.67;4.70;;;8.40;99.90;;;;;;5077497;28;20461;-68
2022/02/15 08:46:30;;;;;;;7.77;4.90;;;8.40;99.90;;;;;;5076369;28;21025;-68
2022/02/15 08:48:56;;;;;;;7.50;4.97;;;8.40;99.90;;;;;;5077127;28;20451;-67
2022/02/15 08:51:22;;;;;;;8.30;4.43;;;8.40;99.90;;;;;;5074944;28;20218;-68
2022/02/15 08:53:50;;;;;;;7.67;6.03;;;8.40;99.90;;;;;;5075095;28;20686;-66
2022/02/15 08:56:20;;;;;;;9.03;5.27;;;8.40;99.90;;;;;;5077558;28;20222;-66
2022/02/15 08:58:47;;;;;;;9.03;5.43;;;8.40;99.90;;;;;;5057699;28;20548;-67
2022/02/15 09:01:13;;;;;;;8.30;5.90;;;8.40;99.90;;;;;;5077956;28;20531;-66
2022/02/15 09:03:39;;;;;;;6.43;5.13;;;8.50;99.90;;;;;;5076886;28;20546;-68
2022/02/15 09:06:04;;;;;;;7.43;5.30;;;8.50;99.90;;;;;;5065356;28;20432;-68
2022/02/15 09:08:30;;;;;;;8.80;5.80;;;8.50;99.90;;;;;;5073841;28;20433;-68
2022/02/15 09:10:56;;;;;;;8.37;5.67;;;8.50;99.90;;;;;;5062157;28;20209;-67
2022/02/15 09:13:22;;;;;;;5.73;4.70;;;8.50;99.90;;;;;;5076858;28;20207;-67
2022/02/15 09:15:47;;;;;;;8.07;5.70;;;8.50;99.90;;;;;;5079946;28;20318;-68
2022/02/15 09:18:13;;;;;;;8.23;5.73;;;8.50;99.90;;;;;;5076527;28;20221;-66
2022/02/15 09:20:39;;;;;;;9.03;5.30;;;8.50;99.90;;;;;;5079127;28;20186;-66
2022/02/15 09:23:05;;;;;;;8.40;5.10;;;8.50;99.90;;;;;;5074904;28;20200;-68
2022/02/15 09:25:31;;;;;;;5.13;4.40;;;8.50;99.90;;;;;;5071969;28;20187;-67
2022/02/15 09:27:58;;;;;;;6.27;5.10;;;8.50;99.90;;;;;;5076379;28;21296;-67
2022/02/15 09:30:27;;;;;;;6.60;5.13;;;8.60;99.90;;;;;;5077632;28;20510;-66
2022/02/15 09:32:53;;;;;;;6.97;5.33;;;8.50;99.90;;;;;;5076080;28;20537;-66
2022/02/15 09:35:19;;;;;;;7.03;4.33;;;8.60;99.90;;;;;;5074747;28;20506;-68
2022/02/15 09:37:45;;;;;;;9.50;5.30;;;8.70;99.90;;;;;;5078440;28;20221;-68
2022/02/15 09:40:11;;;;;;;8.40;5.37;;;8.80;99.90;;;;;;5076447;28;20953;-69
2022/02/15 09:42:39;;;;;;;7.93;5.03;;;8.70;99.90;;;;;;5074469;28;20213;-68
2022/02/15 09:45:09;;;;;;;6.90;5.40;;;8.70;99.90;;;;;;5081522;28;20431;-67
2022/02/15 09:47:37;;;;;;;11.33;4.70;;;8.90;99.90;;;;;;5076148;28;20449;-68
2022/02/15 09:50:05;;;;;;;8.33;4.97;;;9.00;99.90;;;;;;5075070;28;20978;-68
2022/02/15 09:52:30;;;;;;;7.73;5.47;;;9.10;99.90;;;;;;5074932;28;20466;-68
2022/02/15 09:54:56;;;;;;;5.53;4.63;;;9.00;99.90;;;;;;5075343;28;20421;-67
2022/02/15 09:57:23;;;;;;;9.67;4.70;;;9.00;99.90;;;;;;5063757;28;20276;-67
2022/02/15 09:59:50;;;;;;;4.83;4.17;;;9.10;99.90;;;;;;5074752;28;20340;-66
2022/02/15 10:02:23;;;;;;;6.30;4.77;;;9.10;99.90;;;;;;5076314;28;20496;-67
2022/02/15 10:04:57;;;;;;;6.97;4.60;;;9.10;99.90;;;;;;5078354;28;20536;-67
2022/02/15 10:07:24;;;;;;;8.60;5.47;;;9.20;99.90;;;;;;5060361;28;20497;-67
2022/02/15 10:09:59;;;;;;;5.30;4.10;;;9.30;99.90;;;;;;5074364;28;20448;-66
2022/02/15 10:12:25;;;;;;;7.63;5.00;;;9.20;99.90;;;;;;5076153;28;20820;-68
2022/02/15 10:14:54;;;;;;;8.23;4.47;;;9.30;99.90;;;;;;5075123;28;20449;-69
2022/02/15 10:17:23;;;;;;;7.30;4.80;;;9.20;99.90;;;;;;5076807;28;20471;-68
2022/02/15 10:19:51;;;;;;;5.50;4.90;;;9.20;99.90;;;;;;5079283;28;20732;-69
2022/02/15 10:22:19;;;;;;;6.73;4.60;;;9.30;99.90;;;;;;5043576;28;20514;-68
2022/02/15 10:24:55;;;;;;;7.23;4.80;;;9.30;99.90;;;;;;5073223;28;20448;-68
2022/02/15 10:27:30;;;;;;;5.33;4.20;;;9.30;99.90;;;;;;5076447;28;20428;-67
2022/02/15 10:29:57;;;;;;;7.53;5.03;;;9.30;99.90;;;;;;5075438;28;20435;-68
2022/02/15 10:32:24;;;;;;;4.90;4.40;;;9.30;99.90;;;;;;5078575;28;20448;-68
2022/02/15 10:34:58;;;;;;;7.43;3.97;;;9.20;99.90;;;;;;5075220;28;20792;-69
2022/02/15 10:37:26;;;;;;;6.53;4.60;;;9.30;99.90;;;;;;5074117;28;20506;-69
2022/02/15 10:39:58;;;;;;;4.87;4.40;;;9.20;99.90;;;;;;5074583;28;20810;-69
2022/02/15 10:42:26;;;;;;;5.17;4.23;;;9.30;99.90;;;;;;5077153;28;20448;-69
2022/02/15 10:44:54;;;;;;;5.23;4.40;;;9.30;99.90;;;;;;5073412;28;20468;-68
2022/02/15 10:47:21;;;;;;;7.40;4.27;;;9.30;99.90;;;;;;5074989;28;20440;-70
2022/02/15 10:49:47;;;;;;;6.60;4.53;;;9.40;99.90;;;;;;5074160;28;20444;-70
2022/02/15 10:52:13;;;;;;;6.43;4.00;;;9.30;99.90;;;;;;5075066;28;20461;-71
2022/02/15 10:54:42;;;;;;;8.97;4.70;;;9.30;99.90;;;;;;5078889;28;20439;-71
2022/02/15 10:57:14;;;;;;;5.70;4.20;;;9.30;99.90;;;;;;5073387;28;20183;-70
2022/02/15 10:59:42;;;;;;;7.20;4.27;;;9.30;99.90;;;;;;5071509;28;20481;-70
2022/02/15 11:02:26;;;;;;;5.00;4.20;;;9.20;99.90;;;;;;5076018;28;20584;-69
2022/02/15 11:04:56;;;;;;;6.50;4.20;;;9.30;99.90;;;;;;5073871;28;20435;-68
2022/02/15 11:07:33;;;;;;;5.00;4.00;;;9.30;99.90;;;;;;5075082;28;20535;-68
2022/02/15 11:10:08;;;;;;;4.60;4.03;;;9.30;99.90;;;;;;5077530;28;20431;-67
2022/02/15 11:12:43;;;;;;;9.10;4.13;;;9.30;99.90;;;;;;5075301;28;20900;-69
2022/02/15 11:15:10;;;;;;;4.87;4.33;;;9.30;99.90;;;;;;5071597;28;20532;-67
2022/02/15 11:17:46;;;;;;;4.40;3.43;;;9.30;99.90;;;;;;5073324;28;20514;-68
2022/02/15 11:20:16;;;;;;;9.40;4.30;;;9.30;99.90;;;;;;5074492;28;20419;-70
2022/02/15 11:22:42;;;;;;;7.47;5.13;;;9.30;99.90;;;;;;5058565;28;20499;-68
2022/02/15 11:25:09;;;;;;;6.73;4.13;;;9.30;99.90;;;;;;5065704;28;20460;-69
2022/02/15 11:27:35;;;;;;;6.60;4.80;;;9.40;99.90;;;;;;5070995;28;21037;-68
2022/02/15 11:30:01;;;;;;;5.33;4.20;;;9.50;99.90;;;;;;5077619;28;20423;-68
2022/02/15 11:32:34;;;;;;;6.27;5.07;;;9.60;99.90;;;;;;5068260;28;20530;-67
2022/02/15 11:35:29;;;;;;;12.07;5.37;;;9.80;99.90;;;;;;5076394;28;20448;-68
2022/02/15 11:38:07;;;;;;;6.67;5.03;;;9.90;99.90;;;;;;5057579;28;20835;-67
2022/02/15 11:40:34;;;;;;;10.13;5.60;;;9.90;99.90;;;;;;5071753;28;20550;-67
2022/02/15 11:43:04;;;;;;;9.10;4.57;;;9.80;99.90;;;;;;5072253;28;20506;-68
2022/02/15 11:45:31;;;;;;;9.37;6.10;;;9.90;99.90;;;;;;5077931;28;20475;-68
2022/02/15 11:48:08;;;;;;;7.20;5.50;;;9.80;99.90;;;;;;5079649;28;20639;-68
2022/02/15 11:50:52;;;;;;;11.83;5.30;;;9.70;99.90;;;;;;5076063;28;20432;-69
2022/02/15 11:53:19;;;;;;;6.43;4.33;;;9.60;99.90;;;;;;5072498;28;20448;-68
2022/02/15 11:55:46;;;;;;;4.77;4.27;;;9.60;99.90;;;;;;5076418;28;20817;-67
2022/02/15 11:58:13;;;;;;;4.80;3.07;;;9.60;99.90;;;;;;5075103;28;21292;-67
2022/02/15 12:00:41;;;;;;;4.10;3.40;;;9.40;99.90;;;;;;5079045;28;20471;-68
2022/02/15 12:03:13;;;;;;;2.83;2.60;;;9.30;99.90;;;;;;5075513;28;20518;-68
2022/02/15 12:05:42;;;;;;;4.40;3.23;;;9.20;99.90;;;;;;5078991;28;20528;-67
2022/02/15 12:08:07;;;;;;;3.37;2.60;;;9.20;99.90;;;;;;5078983;28;20467;-68
2022/02/15 12:10:38;;;;;;;2.77;2.43;;;9.50;99.90;;;;;;5076161;28;20429;-67
2022/02/15 12:13:04;;;;;;;3.10;2.03;;;9.80;99.90;;;;;;5069210;28;20246;-67
2022/02/15 12:15:36;;;;;;;4.40;2.50;;;11.30;99.90;;;;;;5079233;28;20761;-68
2022/02/15 12:18:03;;;;;;;3.93;2.50;;;13.00;99.90;;;;;;5077214;28;20867;-67
2022/02/15 12:20:29;;;;;;;2.77;1.90;;;14.80;99.90;;;;;;5077485;28;20471;-66
2022/02/15 12:22:55;;;;;;;2.20;2.00;;;15.90;99.90;;;;;;5079097;28;20464;-67
2022/02/15 12:25:21;;;;;;;2.80;2.13;;;17.00;99.90;;;;;;5075733;28;20636;-68
2022/02/15 12:27:48;;;;;;;3.90;2.93;;;17.30;99.90;;;;;;5080863;28;20475;-68
2022/02/15 12:30:16;;;;;;;3.70;2.50;;;16.60;99.90;;;;;;5074753;28;20432;-71
2022/02/15 12:32:48;;;;;;;3.73;2.60;;;17.20;99.90;;;;;;5080151;28;20452;-71
2022/02/15 12:35:32;;;;;;;3.37;2.40;;;17.10;99.00;;;;;;5073968;28;20505;-69
2022/02/15 12:37:59;;;;;;;2.40;2.07;;;15.80;99.90;;;;;;5080343;28;20479;-69
2022/02/15 12:40:25;;;;;;;5.20;2.63;;;14.60;99.90;;;;;;5078380;28;20464;-69
2022/02/15 12:42:54;;;;;;;3.30;2.70;;;13.50;99.90;;;;;;5079817;28;21189;-68
2022/02/15 12:45:19;;;;;;;3.03;2.67;;;12.70;99.90;;;;;;5072583;28;20203;-68
2022/02/15 12:47:45;;;;;;;4.13;2.80;;;12.10;99.90;;;;;;5077592;28;20617;-69
2022/02/15 12:50:14;;;;;;;3.30;2.50;;;12.10;99.90;;;;;;5078750;28;20644;-68
2022/02/15 12:52:40;;;;;;;3.73;2.97;;;11.80;99.90;;;;;;5078124;28;20212;-68
2022/02/15 12:55:12;;;;;;;7.13;3.47;;;11.60;99.90;;;;;;5077731;28;20433;-70
2022/02/15 12:57:39;;;;;;;4.87;3.23;;;11.30;99.90;;;;;;5077976;28;20479;-71
2022/02/15 13:00:08;;;;;;;3.80;3.00;;;11.10;99.90;;;;;;5074954;28;20425;-68